createdAt,value
2019-03-13T00:00:36.403Z,0.40
2019-03-13T00:03:02.388Z,0.40
2019-03-13T00:05:28.330Z,0.80
2019-03-13T00:07:54.345Z,0.60
2019-03-13T00:10:21.070Z,0.80
2019-03-13T00:12:47.037Z,0.97
2019-03-13T00:15:13.020Z,0.47
2019-03-13T00:17:39.012Z,1.03
2019-03-13T00:20:04.981Z,0.90
2019-03-13T00:22:31.669Z,0.80
2019-03-13T00:24:57.624Z,0.83
2019-03-13T00:27:23.589Z,0.60
2019-03-13T00:29:49.562Z,0.60
2019-03-13T00:32:15.539Z,0.60
2019-03-13T00:34:41.536Z,0.80
2019-03-13T00:37:07.495Z,0.80
2019-03-13T00:39:33.474Z,0.50
2019-03-13T00:41:59.446Z,1.00
2019-03-13T00:44:25.436Z,1.37
2019-03-13T00:46:51.400Z,0.93
2019-03-13T00:49:17.401Z,0.90
2019-03-13T00:51:43.369Z,0.93
2019-03-13T00:54:09.348Z,1.30
2019-03-13T00:56:35.305Z,0.97
2019-03-13T00:59:02.069Z,1.23
2019-03-13T01:01:28.773Z,0.90
2019-03-13T01:03:54.718Z,1.07
2019-03-13T01:06:20.708Z,0.80
2019-03-13T01:08:46.674Z,1.30
2019-03-13T01:11:12.641Z,0.90
2019-03-13T01:13:38.601Z,0.60
2019-03-13T01:16:04.571Z,0.73
2019-03-13T01:18:30.517Z,0.73
2019-03-13T01:20:56.485Z,1.00
2019-03-13T01:23:23.179Z,0.83
2019-03-13T01:25:49.159Z,0.70
2019-03-13T01:28:15.843Z,1.63
2019-03-13T01:30:41.822Z,1.27
2019-03-13T01:33:08.508Z,0.90
2019-03-13T01:35:34.479Z,0.87
2019-03-13T01:38:01.178Z,1.10
2019-03-13T01:40:27.155Z,1.13
2019-03-13T01:42:53.116Z,1.07
2019-03-13T01:45:19.094Z,1.20
2019-03-13T01:47:45.779Z,1.00
2019-03-13T01:50:11.759Z,0.93
2019-03-13T01:52:38.442Z,1.40
2019-03-13T01:55:04.431Z,1.10
2019-03-13T01:57:30.375Z,1.17
2019-03-13T01:59:56.328Z,1.03
2019-03-13T02:02:22.310Z,1.33
2019-03-13T02:04:48.277Z,1.73
2019-03-13T02:07:14.268Z,1.40
2019-03-13T02:09:40.215Z,2.20
2019-03-13T02:12:06.200Z,2.07
2019-03-13T02:14:32.176Z,1.77
2019-03-13T02:16:58.159Z,1.97
2019-03-13T02:19:24.116Z,1.70
2019-03-13T02:21:50.097Z,1.80
2019-03-13T02:24:16.061Z,2.10
2019-03-13T02:26:42.048Z,1.93
2019-03-13T02:29:08.013Z,1.57
2019-03-13T02:31:34.739Z,1.60
2019-03-13T02:34:00.702Z,2.00
2019-03-13T02:36:27.413Z,1.60
2019-03-13T02:38:53.376Z,1.50
2019-03-13T02:41:19.360Z,2.03
2019-03-13T02:43:46.063Z,1.80
2019-03-13T02:46:12.065Z,1.10
2019-03-13T02:48:38.027Z,1.50
2019-03-13T02:51:04.042Z,1.70
2019-03-13T02:53:29.992Z,1.40
2019-03-13T02:55:56.708Z,1.50
2019-03-13T02:58:22.694Z,1.40
2019-03-13T03:00:48.710Z,1.30
2019-03-13T03:03:15.415Z,1.20
2019-03-13T03:05:41.369Z,1.30
2019-03-13T03:08:07.346Z,1.23
2019-03-13T03:10:33.320Z,1.40
2019-03-13T03:12:59.294Z,1.47
2019-03-13T03:15:25.241Z,1.27
2019-03-13T03:17:51.956Z,1.57
2019-03-13T03:20:18.680Z,1.07
2019-03-13T03:22:44.664Z,1.30
2019-03-13T03:25:10.647Z,1.57
2019-03-13T03:27:36.628Z,1.60
2019-03-13T03:30:02.597Z,1.47
2019-03-13T03:32:28.569Z,1.57
2019-03-13T03:34:54.546Z,1.80
2019-03-13T03:37:20.701Z,2.13
2019-03-13T03:39:47.286Z,1.70
2019-03-13T03:42:13.267Z,2.40
2019-03-13T03:44:39.260Z,1.87
2019-03-13T03:47:05.985Z,2.03
2019-03-13T03:49:31.976Z,2.67
2019-03-13T03:51:57.915Z,2.63
2019-03-13T03:54:23.902Z,2.40
2019-03-13T03:56:49.859Z,2.10
2019-03-13T03:59:15.855Z,3.13
2019-03-13T04:01:41.874Z,2.07
2019-03-13T04:04:08.581Z,2.10
2019-03-13T04:06:35.275Z,2.17
2019-03-13T04:09:01.261Z,2.20
2019-03-13T04:11:27.237Z,2.63
2019-03-13T04:13:53.252Z,3.00
2019-03-13T04:16:19.213Z,2.20
2019-03-13T04:18:45.952Z,2.33
2019-03-13T04:21:12.655Z,2.13
2019-03-13T04:23:38.653Z,2.20
2019-03-13T04:26:04.624Z,3.03
2019-03-13T04:28:30.609Z,2.93
2019-03-13T04:30:56.586Z,2.83
2019-03-13T04:33:23.298Z,2.30
2019-03-13T04:35:49.250Z,2.43
2019-03-13T04:38:15.949Z,2.13
2019-03-13T04:40:41.924Z,1.63
2019-03-13T04:43:08.612Z,2.27
2019-03-13T04:45:34.583Z,2.70
2019-03-13T04:48:01.290Z,1.73
2019-03-13T04:50:27.275Z,1.70
2019-03-13T04:52:53.245Z,2.10
2019-03-13T04:55:19.971Z,1.90
2019-03-13T04:57:45.919Z,1.53
2019-03-13T05:00:12.626Z,2.33
2019-03-13T05:02:38.594Z,1.80
2019-03-13T05:05:05.391Z,1.93
2019-03-13T05:07:31.337Z,2.00
2019-03-13T05:09:57.354Z,1.87
2019-03-13T05:12:23.317Z,1.50
2019-03-13T05:14:49.309Z,1.17
2019-03-13T05:17:15.276Z,1.50
2019-03-13T05:19:41.294Z,1.43
2019-03-13T05:22:07.260Z,1.43
2019-03-13T05:24:33.241Z,1.50
2019-03-13T05:26:59.188Z,1.63
2019-03-13T05:29:25.133Z,1.70
2019-03-13T05:31:51.133Z,1.40
2019-03-13T05:34:17.490Z,1.60
2019-03-13T05:36:43.529Z,1.87
2019-03-13T05:39:10.256Z,1.50
2019-03-13T05:41:36.214Z,0.93
2019-03-13T05:44:02.164Z,1.23
2019-03-13T05:46:28.160Z,1.50
2019-03-13T05:48:54.191Z,1.33
2019-03-13T05:51:20.267Z,1.30
2019-03-13T05:53:46.239Z,0.83
2019-03-13T05:56:12.231Z,1.40
2019-03-13T05:58:38.947Z,1.50
2019-03-13T06:01:04.937Z,1.47
2019-03-13T06:03:30.903Z,1.60
2019-03-13T06:05:56.880Z,1.23
2019-03-13T06:08:22.874Z,1.07
2019-03-13T06:10:49.600Z,1.00
2019-03-13T06:13:16.313Z,1.60
2019-03-13T06:15:42.283Z,1.07
2019-03-13T06:18:09.702Z,1.40
2019-03-13T06:20:34.308Z,1.00
2019-03-13T06:23:00.256Z,2.07
2019-03-13T06:25:26.227Z,1.30
2019-03-13T06:27:52.246Z,1.00
2019-03-13T06:30:18.234Z,1.60
2019-03-13T06:32:44.224Z,1.30
2019-03-13T06:35:10.959Z,1.40
2019-03-13T06:37:37.682Z,1.00
2019-03-13T06:40:03.668Z,1.20
2019-03-13T06:42:29.644Z,1.30
2019-03-13T06:44:55.596Z,1.23
2019-03-13T06:47:24.740Z,2.13
2019-03-13T06:49:47.634Z,1.73
2019-03-13T06:52:14.367Z,0.57
2019-03-13T06:54:41.077Z,1.40
2019-03-13T06:57:07.043Z,1.53
2019-03-13T06:59:32.997Z,1.90
2019-03-13T07:01:58.988Z,1.23
2019-03-13T07:04:24.956Z,1.60
2019-03-13T07:06:50.945Z,1.17
2019-03-13T07:09:16.913Z,1.93
2019-03-13T07:11:42.904Z,1.80
2019-03-13T07:14:08.844Z,1.67
2019-03-13T07:16:34.864Z,1.60
2019-03-13T07:19:00.838Z,1.20
2019-03-13T07:21:27.551Z,1.13
2019-03-13T07:23:53.547Z,1.13
2019-03-13T07:26:19.502Z,1.97
2019-03-13T07:28:45.502Z,2.07
2019-03-13T07:31:11.453Z,1.27
2019-03-13T07:33:37.450Z,1.80
2019-03-13T07:36:03.417Z,1.90
2019-03-13T07:38:30.126Z,1.80
2019-03-13T07:40:56.090Z,1.83
2019-03-13T07:43:22.062Z,1.47
2019-03-13T07:45:48.032Z,1.43
2019-03-13T07:48:14.772Z,2.10
2019-03-13T07:50:40.800Z,1.70
2019-03-13T07:53:06.769Z,1.20
2019-03-13T07:55:32.768Z,1.60
2019-03-13T07:57:58.757Z,1.50
2019-03-13T08:00:25.482Z,1.50
2019-03-13T08:02:52.221Z,1.53
2019-03-13T08:05:18.994Z,2.03
2019-03-13T08:07:44.986Z,2.30
2019-03-13T08:10:11.712Z,2.20
2019-03-13T08:12:37.676Z,1.70
2019-03-13T08:15:03.679Z,1.60
2019-03-13T08:17:30.389Z,2.23
2019-03-13T08:19:56.380Z,1.30
2019-03-13T08:22:22.337Z,1.97
2019-03-13T08:24:48.330Z,2.70
2019-03-13T08:27:14.297Z,1.30
2019-03-13T08:29:41.036Z,2.03
2019-03-13T08:32:06.990Z,1.50
2019-03-13T08:34:32.965Z,1.50
2019-03-13T08:36:58.919Z,1.60
2019-03-13T08:39:25.645Z,1.60
2019-03-13T08:41:52.363Z,1.50
2019-03-13T08:44:18.346Z,1.60
2019-03-13T08:46:44.292Z,1.80
2019-03-13T08:49:10.272Z,1.03
2019-03-13T08:51:36.971Z,1.07
2019-03-13T08:54:02.974Z,1.60
2019-03-13T08:56:28.947Z,1.63
2019-03-13T08:58:55.636Z,1.30
2019-03-13T09:01:21.637Z,1.10
2019-03-13T09:03:47.602Z,1.20
2019-03-13T09:06:13.905Z,0.93
2019-03-13T09:08:39.663Z,1.60
2019-03-13T09:11:05.642Z,1.30
2019-03-13T09:13:31.623Z,0.70
2019-03-13T09:15:58.362Z,1.00
2019-03-13T09:18:25.086Z,1.17
2019-03-13T09:20:51.080Z,1.03
2019-03-13T09:23:17.040Z,0.90
2019-03-13T09:25:43.011Z,0.97
2019-03-13T09:28:08.992Z,1.10
2019-03-13T09:30:35.732Z,0.93
2019-03-13T09:33:01.713Z,1.27
2019-03-13T09:35:27.690Z,1.13
2019-03-13T09:37:54.402Z,1.57
2019-03-13T09:40:20.382Z,0.97
2019-03-13T09:42:46.344Z,1.00
2019-03-13T09:45:12.335Z,1.30
2019-03-13T09:47:38.304Z,1.10
2019-03-13T09:50:04.293Z,1.57
2019-03-13T09:52:30.231Z,1.50
2019-03-13T09:54:56.177Z,0.63
2019-03-13T09:57:22.178Z,1.77
2019-03-13T09:59:48.125Z,1.30
2019-03-13T10:02:14.871Z,0.93
2019-03-13T10:04:40.816Z,1.33
2019-03-13T10:07:06.791Z,1.33
2019-03-13T10:09:32.731Z,1.73
2019-03-13T10:11:59.464Z,1.57
2019-03-13T10:14:26.880Z,1.30
2019-03-13T10:16:52.203Z,1.30
2019-03-13T10:19:18.154Z,1.30
2019-03-13T10:21:44.139Z,1.27
2019-03-13T10:24:10.093Z,1.40
2019-03-13T10:26:36.072Z,1.60
2019-03-13T10:29:02.039Z,1.60
2019-03-13T10:31:28.037Z,1.10
2019-03-13T10:33:53.997Z,1.70
2019-03-13T10:36:20.734Z,0.93
2019-03-13T10:38:47.456Z,0.87
2019-03-13T10:41:13.431Z,1.47
2019-03-13T10:43:39.383Z,1.17
2019-03-13T10:46:05.339Z,1.07
2019-03-13T10:48:31.336Z,0.77
2019-03-13T10:50:57.325Z,0.90
2019-03-13T10:53:23.330Z,1.20
2019-03-13T10:55:49.305Z,1.30
2019-03-13T10:58:15.289Z,1.30
2019-03-13T11:00:41.281Z,1.03
2019-03-13T11:03:07.287Z,1.50
2019-03-13T11:05:33.262Z,1.83
2019-03-13T11:07:59.266Z,1.40
2019-03-13T11:10:25.251Z,1.20
2019-03-13T11:12:51.297Z,1.17
2019-03-13T11:15:17.218Z,1.00
2019-03-13T11:17:43.206Z,1.10
2019-03-13T11:20:09.177Z,1.70
2019-03-13T11:22:35.207Z,0.90
2019-03-13T11:25:01.186Z,1.10
2019-03-13T11:27:27.179Z,1.30
2019-03-13T11:29:53.143Z,0.90
2019-03-13T11:32:19.125Z,0.73
2019-03-13T11:34:45.089Z,1.30
2019-03-13T11:37:11.044Z,1.13
2019-03-13T11:39:37.034Z,0.80
2019-03-13T11:42:03.001Z,1.00
2019-03-13T11:44:28.968Z,1.10
2019-03-13T11:46:54.934Z,0.87
2019-03-13T11:49:20.926Z,1.00
2019-03-13T11:51:46.892Z,1.00
2019-03-13T11:54:12.898Z,1.10
2019-03-13T11:56:39.596Z,0.97
2019-03-13T11:59:05.579Z,0.80
2019-03-13T12:01:31.539Z,1.00
2019-03-13T12:03:57.551Z,0.63
2019-03-13T12:06:23.547Z,1.27
2019-03-13T12:08:49.551Z,1.20
2019-03-13T12:11:16.257Z,1.00
2019-03-13T12:13:42.241Z,1.00
2019-03-13T12:16:08.210Z,1.03
2019-03-13T12:18:34.197Z,0.80
2019-03-13T12:21:00.179Z,0.70
2019-03-13T12:23:26.933Z,0.93
2019-03-13T12:25:52.920Z,1.03
2019-03-13T12:28:18.886Z,0.57
2019-03-13T12:30:44.888Z,0.93
2019-03-13T12:33:11.581Z,0.70
2019-03-13T12:35:37.564Z,0.87
2019-03-13T12:38:03.545Z,0.97
2019-03-13T12:40:29.546Z,1.00
2019-03-13T12:42:55.503Z,0.60
2019-03-13T12:45:22.266Z,1.00
2019-03-13T12:47:48.237Z,1.00
2019-03-13T12:50:14.275Z,0.83
2019-03-13T12:52:40.227Z,0.90
2019-03-13T12:55:06.975Z,0.90
2019-03-13T12:57:32.932Z,1.00
2019-03-13T12:59:58.923Z,1.07
2019-03-13T13:02:24.910Z,0.50
2019-03-13T13:04:50.895Z,0.90
2019-03-13T13:07:16.850Z,1.20
2019-03-13T13:09:42.839Z,0.97
2019-03-13T13:12:08.796Z,0.90
2019-03-13T13:14:34.778Z,0.93
2019-03-13T13:17:00.744Z,0.63
2019-03-13T13:19:26.694Z,0.60
2019-03-13T13:21:53.408Z,1.07
2019-03-13T13:24:19.368Z,0.80
2019-03-13T13:26:45.359Z,0.70
2019-03-13T13:29:11.339Z,0.73
2019-03-13T13:31:37.332Z,1.20
2019-03-13T13:34:03.288Z,1.07
2019-03-13T13:36:29.298Z,1.10
2019-03-13T13:38:55.247Z,1.10
2019-03-13T13:41:21.247Z,1.30
2019-03-13T13:43:47.207Z,1.27
2019-03-13T13:46:13.179Z,1.40
2019-03-13T13:48:39.155Z,1.10
2019-03-13T13:51:05.142Z,1.40
2019-03-13T13:53:31.112Z,1.63
2019-03-13T13:55:57.095Z,1.50
2019-03-13T13:58:23.066Z,1.40
2019-03-13T14:00:49.776Z,1.70
2019-03-13T14:03:15.775Z,1.60
2019-03-13T14:05:41.780Z,1.53
2019-03-13T14:08:07.758Z,1.37
2019-03-13T14:10:33.723Z,1.00
2019-03-13T14:12:59.729Z,1.43
2019-03-13T14:15:26.436Z,1.07
2019-03-13T14:17:52.420Z,1.57
2019-03-13T14:20:18.368Z,2.27
2019-03-13T14:22:44.346Z,1.80
2019-03-13T14:25:10.302Z,1.10
2019-03-13T14:27:36.298Z,1.23
2019-03-13T14:30:02.263Z,1.17
2019-03-13T14:32:28.252Z,1.13
2019-03-13T14:34:54.187Z,1.13
2019-03-13T14:37:20.197Z,1.00
2019-03-13T14:39:46.184Z,0.60
2019-03-13T14:42:12.164Z,0.70
2019-03-13T14:44:38.127Z,1.00
2019-03-13T14:47:04.109Z,1.50
2019-03-13T14:49:30.080Z,1.07
2019-03-13T14:51:56.839Z,0.50
2019-03-13T14:54:23.532Z,1.00
2019-03-13T14:56:49.491Z,0.40
2019-03-13T14:59:16.214Z,1.03
2019-03-13T15:01:42.183Z,1.50
2019-03-13T15:04:08.168Z,0.77
2019-03-13T15:06:34.135Z,1.27
2019-03-13T15:09:00.142Z,1.03
2019-03-13T15:11:26.136Z,1.00
2019-03-13T15:13:52.210Z,1.10
2019-03-13T15:16:18.173Z,0.83
2019-03-13T15:18:45.823Z,1.00
2019-03-13T15:21:11.829Z,0.70
2019-03-13T15:23:37.805Z,0.87
2019-03-13T15:26:04.522Z,0.93
2019-03-13T15:28:30.541Z,1.10
2019-03-13T15:30:57.267Z,0.70
2019-03-13T15:33:23.257Z,0.93
2019-03-13T15:35:49.227Z,0.80
2019-03-13T15:38:15.237Z,0.97
2019-03-13T15:40:41.200Z,1.10
2019-03-13T15:43:07.939Z,1.27
2019-03-13T15:45:33.932Z,0.80
2019-03-13T15:47:59.918Z,0.80
2019-03-13T15:50:25.891Z,1.50
2019-03-13T15:52:52.641Z,0.83
2019-03-13T15:55:19.370Z,0.90
2019-03-13T15:57:45.358Z,1.07
2019-03-13T16:00:11.340Z,0.90
2019-03-13T16:02:37.307Z,0.77
2019-03-13T16:05:03.298Z,0.73
2019-03-13T16:07:29.280Z,1.00
2019-03-13T16:10:03.466Z,1.00
2019-03-13T16:12:28.248Z,0.83
2019-03-13T16:14:54.286Z,0.63
2019-03-13T16:17:20.256Z,0.60
2019-03-13T16:19:46.272Z,0.73
2019-03-13T16:22:12.983Z,0.50
2019-03-13T16:24:38.980Z,0.77
2019-03-13T16:27:04.950Z,0.60
2019-03-13T16:29:31.664Z,0.70
2019-03-13T16:31:57.619Z,0.80
2019-03-13T16:34:24.340Z,0.77
2019-03-13T16:36:50.295Z,0.77
2019-03-13T16:39:16.267Z,0.87
2019-03-13T16:41:42.238Z,0.70
2019-03-13T16:44:08.962Z,1.17
2019-03-13T16:46:35.692Z,0.60
2019-03-13T16:49:01.693Z,1.10
2019-03-13T16:51:27.659Z,0.60
2019-03-13T16:53:54.403Z,0.80
2019-03-13T16:56:21.121Z,1.30
2019-03-13T16:58:47.129Z,1.53
2019-03-13T17:01:13.072Z,1.20
2019-03-13T17:03:39.122Z,1.30
2019-03-13T17:06:05.085Z,1.57
2019-03-13T17:08:31.088Z,0.60
2019-03-13T17:10:57.073Z,1.13
2019-03-13T17:13:23.787Z,1.17
2019-03-13T17:15:49.803Z,1.03
2019-03-13T17:18:15.780Z,1.30
2019-03-13T17:20:41.756Z,1.37
2019-03-13T17:23:07.728Z,1.30
2019-03-13T17:25:33.709Z,0.93
2019-03-13T17:27:59.663Z,1.63
2019-03-13T17:30:26.381Z,1.60
2019-03-13T17:32:52.352Z,1.20
2019-03-13T17:35:18.330Z,1.30
2019-03-13T17:37:44.293Z,1.37
2019-03-13T17:40:10.288Z,1.27
2019-03-13T17:42:36.297Z,1.27
2019-03-13T17:45:02.281Z,1.57
2019-03-13T17:47:28.231Z,1.07
2019-03-13T17:49:54.221Z,1.27
2019-03-13T17:52:20.195Z,0.93
2019-03-13T17:54:46.940Z,1.90
2019-03-13T17:57:12.903Z,1.70
2019-03-13T17:59:38.902Z,1.10
2019-03-13T18:02:04.877Z,1.93
2019-03-13T18:04:30.872Z,1.40
2019-03-13T18:06:56.850Z,2.07
2019-03-13T18:09:23.582Z,1.77
2019-03-13T18:11:49.559Z,1.87
2019-03-13T18:14:15.561Z,1.90
2019-03-13T18:16:41.588Z,2.03
2019-03-13T18:19:07.551Z,1.40
2019-03-13T18:21:34.345Z,1.73
2019-03-13T18:24:00.339Z,1.77
2019-03-13T18:26:26.344Z,1.63
2019-03-13T18:28:52.329Z,2.37
2019-03-13T18:31:18.349Z,1.43
2019-03-13T18:33:44.304Z,1.80
2019-03-13T18:36:10.334Z,1.67
2019-03-13T18:38:36.313Z,1.50
2019-03-13T18:41:02.313Z,1.90
2019-03-13T18:43:28.282Z,2.03
2019-03-13T18:45:54.296Z,2.27
2019-03-13T18:48:20.253Z,1.67
2019-03-13T18:50:46.268Z,2.00
2019-03-13T18:53:12.228Z,1.70
2019-03-13T18:55:38.961Z,1.73
2019-03-13T18:58:05.694Z,2.00
2019-03-13T19:00:32.457Z,1.70
2019-03-13T19:02:58.440Z,2.07
2019-03-13T19:05:24.527Z,1.73
2019-03-13T19:07:50.541Z,1.30
2019-03-13T19:10:16.485Z,1.90
2019-03-13T19:12:42.470Z,2.00
2019-03-13T19:15:09.291Z,1.30
2019-03-13T19:17:35.261Z,1.73
2019-03-13T19:20:01.214Z,1.80
2019-03-13T19:22:27.232Z,1.90
2019-03-13T19:24:53.191Z,1.83
2019-03-13T19:27:19.906Z,1.60
2019-03-13T19:29:45.866Z,1.30
2019-03-13T19:32:12.612Z,2.43
2019-03-13T19:34:38.635Z,1.40
2019-03-13T19:37:04.686Z,1.43
2019-03-13T19:39:32.131Z,1.00
2019-03-13T19:41:56.731Z,1.50
2019-03-13T19:44:22.711Z,1.73
2019-03-13T19:46:48.740Z,2.10
2019-03-13T19:49:15.477Z,1.83
2019-03-13T19:51:41.484Z,1.87
2019-03-13T19:54:07.441Z,1.57
2019-03-13T19:56:35.185Z,1.43
2019-03-13T19:59:00.228Z,1.20
2019-03-13T20:01:26.254Z,1.30
2019-03-13T20:03:55.336Z,1.77
2019-03-13T20:06:18.320Z,2.30
2019-03-13T20:08:44.289Z,1.73
2019-03-13T20:11:10.305Z,1.67
2019-03-13T20:13:37.012Z,1.67
2019-03-13T20:16:03.007Z,1.80
2019-03-13T20:18:28.982Z,2.20
2019-03-13T20:20:54.920Z,2.47
2019-03-13T20:23:21.657Z,2.03
2019-03-13T20:25:48.386Z,2.13
2019-03-13T20:28:14.395Z,3.03
2019-03-13T20:30:40.369Z,2.03
2019-03-13T20:33:06.385Z,1.73
2019-03-13T20:35:32.347Z,1.40
2019-03-13T20:37:58.342Z,1.80
2019-03-13T20:40:24.316Z,1.20
2019-03-13T20:42:51.077Z,1.93
2019-03-13T20:45:17.797Z,1.60
2019-03-13T20:47:43.813Z,2.00
2019-03-13T20:50:09.794Z,2.20
2019-03-13T20:52:35.786Z,1.93
2019-03-13T20:55:01.735Z,1.27
2019-03-13T20:57:27.773Z,1.77
2019-03-13T20:59:53.777Z,1.00
2019-03-13T21:02:19.845Z,1.10
2019-03-13T21:04:45.820Z,1.53
2019-03-13T21:07:11.813Z,1.20
2019-03-13T21:09:37.789Z,1.43
2019-03-13T21:12:03.784Z,1.20
2019-03-13T21:14:29.772Z,0.93
2019-03-13T21:16:55.784Z,1.73
2019-03-13T21:19:21.823Z,1.30
2019-03-13T21:21:47.801Z,1.87
2019-03-13T21:24:13.834Z,1.83
2019-03-13T21:26:39.807Z,1.73
2019-03-13T21:29:05.801Z,1.17
2019-03-13T21:31:31.784Z,2.27
2019-03-13T21:33:57.788Z,1.70
2019-03-13T21:36:24.495Z,2.60
2019-03-13T21:38:50.497Z,1.27
2019-03-13T21:41:16.457Z,1.20
2019-03-13T21:43:42.442Z,0.70
2019-03-13T21:46:08.413Z,0.90
2019-03-13T21:48:34.412Z,0.87
2019-03-13T21:51:00.359Z,0.93
2019-03-13T21:53:27.107Z,0.70
2019-03-13T21:55:53.947Z,0.80
2019-03-13T21:58:19.878Z,0.77
2019-03-13T22:00:45.867Z,0.80
2019-03-13T22:03:11.874Z,1.17
2019-03-13T22:05:37.847Z,0.83
2019-03-13T22:08:03.836Z,1.30
2019-03-13T22:10:29.805Z,1.63
2019-03-13T22:12:55.787Z,1.07
2019-03-13T22:15:21.776Z,1.00
2019-03-13T22:17:47.763Z,1.43
2019-03-13T22:20:13.818Z,1.30
2019-03-13T22:22:40.615Z,1.10
2019-03-13T22:25:06.592Z,1.87
2019-03-13T22:27:32.553Z,1.57
2019-03-13T22:29:58.535Z,1.60
2019-03-13T22:32:24.495Z,1.50
2019-03-13T22:34:50.472Z,1.30
2019-03-13T22:37:16.464Z,1.90
2019-03-13T22:39:43.203Z,1.57
2019-03-13T22:42:09.168Z,1.57
2019-03-13T22:44:35.170Z,2.17
2019-03-13T22:47:01.152Z,0.90
2019-03-13T22:49:27.927Z,1.20
2019-03-13T22:51:53.894Z,1.50
2019-03-13T22:54:20.270Z,2.17
2019-03-13T22:56:45.953Z,1.90
2019-03-13T22:59:11.947Z,1.87
2019-03-13T23:01:37.928Z,1.80
2019-03-13T23:04:03.938Z,2.13
2019-03-13T23:06:29.890Z,1.73
2019-03-13T23:08:55.897Z,1.53
2019-03-13T23:11:21.887Z,1.67
2019-03-13T23:13:47.900Z,1.73
2019-03-13T23:16:13.874Z,2.53
2019-03-13T23:18:39.883Z,1.60
2019-03-13T23:21:06.631Z,1.67
2019-03-13T23:23:33.348Z,2.27
2019-03-13T23:26:00.086Z,2.03
2019-03-13T23:28:26.085Z,1.80
2019-03-13T23:30:52.080Z,1.43
2019-03-13T23:33:18.053Z,2.23
2019-03-13T23:35:44.788Z,1.63
2019-03-13T23:38:10.759Z,1.93
2019-03-13T23:40:36.790Z,2.30
2019-03-13T23:43:02.765Z,1.43
2019-03-13T23:45:28.759Z,2.93
2019-03-13T23:47:54.738Z,2.00
2019-03-13T23:50:20.741Z,2.13
2019-03-13T23:52:47.453Z,2.20
2019-03-13T23:55:13.474Z,2.03
2019-03-13T23:57:39.545Z,1.47
